sensor_id;sensor_type;location;lat;lon;timestamp;P1;durP1;ratioP1;P2;durP2;ratioP2
215;SDS011;64590;48.81286795;9.14184224;2023-02-13T00:00:47;32.10;;;16.90;;
215;SDS011;64590;48.81286795;9.14184224;2023-02-13T00:03:14;32.20;;;16.30;;
215;SDS011;64590;48.81286795;9.14184224;2023-02-13T00:05:41;31.20;;;16.13;;
215;SDS011;64590;48.81286795;9.14184224;2023-02-13T00:08:07;31.80;;;15.70;;
215;SDS011;64590;48.81286795;9.14184224;2023-02-13T00:10:34;32.28;;;15.80;;
215;SDS011;64590;48.81286795;9.14184224;2023-02-13T00:13:00;31.25;;;15.90;;
215;SDS011;64590;48.81286795;9.14184224;2023-02-13T00:15:28;32.00;;;16.42;;
215;SDS011;64590;48.81286795;9.14184224;2023-02-13T00:17:55;35.88;;;17.00;;
215;SDS011;64590;48.81286795;9.14184224;2023-02-13T00:20:22;32.38;;;16.60;;
215;SDS011;64590;48.81286795;9.14184224;2023-02-13T00:22:48;33.97;;;17.02;;
215;SDS011;64590;48.81286795;9.14184224;2023-02-13T00:25:15;31.23;;;15.60;;
215;SDS011;64590;48.81286795;9.14184224;2023-02-13T00:27:41;30.17;;;16.20;;
215;SDS011;64590;48.81286795;9.14184224;2023-02-13T00:30:08;31.90;;;15.20;;
215;SDS011;64590;48.81286795;9.14184224;2023-02-13T00:32:37;32.83;;;16.25;;
215;SDS011;64590;48.81286795;9.14184224;2023-02-13T00:35:04;31.02;;;15.45;;
215;SDS011;64590;48.81286795;9.14184224;2023-02-13T00:37:31;33.13;;;16.23;;
215;SDS011;64590;48.81286795;9.14184224;2023-02-13T00:39:58;31.45;;;16.33;;
215;SDS011;64590;48.81286795;9.14184224;2023-02-13T00:42:25;31.58;;;15.95;;
215;SDS011;64590;48.81286795;9.14184224;2023-02-13T00:44:51;29.83;;;16.17;;
215;SDS011;64590;48.81286795;9.14184224;2023-02-13T00:47:18;33.65;;;15.98;;
215;SDS011;64590;48.81286795;9.14184224;2023-02-13T00:49:46;33.85;;;16.50;;
215;SDS011;64590;48.81286795;9.14184224;2023-02-13T00:52:13;32.40;;;16.48;;
215;SDS011;64590;48.81286795;9.14184224;2023-02-13T00:54:39;29.63;;;15.88;;
215;SDS011;64590;48.81286795;9.14184224;2023-02-13T00:57:06;32.45;;;15.90;;
215;SDS011;64590;48.81286795;9.14184224;2023-02-13T00:59:33;31.85;;;15.77;;
215;SDS011;64590;48.81286795;9.14184224;2023-02-13T01:02:00;30.52;;;15.73;;
215;SDS011;64590;48.81286795;9.14184224;2023-02-13T01:04:26;29.92;;;15.05;;
215;SDS011;64590;48.81286795;9.14184224;2023-02-13T01:06:56;30.80;;;15.70;;
215;SDS011;64590;48.81286795;9.14184224;2023-02-13T01:09:23;32.25;;;15.95;;
215;SDS011;64590;48.81286795;9.14184224;2023-02-13T01:11:50;30.25;;;15.10;;
215;SDS011;64590;48.81286795;9.14184224;2023-02-13T01:14:17;34.22;;;16.25;;
215;SDS011;64590;48.81286795;9.14184224;2023-02-13T01:16:45;33.55;;;15.95;;
215;SDS011;64590;48.81286795;9.14184224;2023-02-13T01:19:12;29.98;;;15.70;;
215;SDS011;64590;48.81286795;9.14184224;2023-02-13T01:21:38;32.55;;;15.85;;
215;SDS011;64590;48.81286795;9.14184224;2023-02-13T01:24:07;29.13;;;14.90;;
215;SDS011;64590;48.81286795;9.14184224;2023-02-13T01:26:34;29.38;;;14.30;;
215;SDS011;64590;48.81286795;9.14184224;2023-02-13T01:29:01;30.98;;;15.55;;
215;SDS011;64590;48.81286795;9.14184224;2023-02-13T01:31:27;31.65;;;15.85;;
215;SDS011;64590;48.81286795;9.14184224;2023-02-13T01:33:54;30.42;;;15.48;;
215;SDS011;64590;48.81286795;9.14184224;2023-02-13T01:36:22;30.48;;;15.07;;
215;SDS011;64590;48.81286795;9.14184224;2023-02-13T01:38:51;28.05;;;14.45;;
215;SDS011;64590;48.81286795;9.14184224;2023-02-13T01:41:20;31.52;;;14.82;;
215;SDS011;64590;48.81286795;9.14184224;2023-02-13T01:43:48;31.20;;;15.50;;
215;SDS011;64590;48.81286795;9.14184224;2023-02-13T01:46:21;31.77;;;15.10;;
215;SDS011;64590;48.81286795;9.14184224;2023-02-13T01:48:54;31.15;;;15.18;;
215;SDS011;64590;48.81286795;9.14184224;2023-02-13T01:51:24;31.35;;;14.57;;
215;SDS011;64590;48.81286795;9.14184224;2023-02-13T01:53:56;35.95;;;15.90;;
215;SDS011;64590;48.81286795;9.14184224;2023-02-13T01:56:28;30.55;;;15.43;;
215;SDS011;64590;48.81286795;9.14184224;2023-02-13T01:59:02;31.23;;;15.13;;
215;SDS011;64590;48.81286795;9.14184224;2023-02-13T02:01:31;33.38;;;15.00;;
215;SDS011;64590;48.81286795;9.14184224;2023-02-13T02:04:02;31.55;;;15.63;;
215;SDS011;64590;48.81286795;9.14184224;2023-02-13T02:06:35;30.13;;;14.52;;
215;SDS011;64590;48.81286795;9.14184224;2023-02-13T02:09:07;35.42;;;16.45;;
215;SDS011;64590;48.81286795;9.14184224;2023-02-13T02:11:40;34.22;;;16.17;;
215;SDS011;64590;48.81286795;9.14184224;2023-02-13T02:14:13;34.47;;;16.45;;
215;SDS011;64590;48.81286795;9.14184224;2023-02-13T02:16:40;39.20;;;17.63;;
215;SDS011;64590;48.81286795;9.14184224;2023-02-13T02:19:09;35.95;;;17.48;;
215;SDS011;64590;48.81286795;9.14184224;2023-02-13T02:21:47;34.50;;;16.83;;
215;SDS011;64590;48.81286795;9.14184224;2023-02-13T02:24:33;33.13;;;15.80;;
215;SDS011;64590;48.81286795;9.14184224;2023-02-13T02:27:18;31.40;;;15.60;;
215;SDS011;64590;48.81286795;9.14184224;2023-02-13T02:33:28;34.17;;;16.08;;
215;SDS011;64590;48.81286795;9.14184224;2023-02-13T02:36:07;35.35;;;16.52;;
215;SDS011;64590;48.81286795;9.14184224;2023-02-13T02:38:50;32.95;;;16.63;;
215;SDS011;64590;48.81286795;9.14184224;2023-02-13T02:41:36;36.10;;;16.85;;
215;SDS011;64590;48.81286795;9.14184224;2023-02-13T02:44:19;34.47;;;16.45;;
215;SDS011;64590;48.81286795;9.14184224;2023-02-13T02:46:57;34.83;;;16.20;;
215;SDS011;64590;48.81286795;9.14184224;2023-02-13T02:49:53;35.35;;;15.95;;
215;SDS011;64590;48.81286795;9.14184224;2023-02-13T02:52:33;32.33;;;15.40;;
215;SDS011;64590;48.81286795;9.14184224;2023-02-13T02:55:15;33.30;;;15.73;;
215;SDS011;64590;48.81286795;9.14184224;2023-02-13T02:57:54;30.52;;;14.63;;
215;SDS011;64590;48.81286795;9.14184224;2023-02-13T03:00:46;33.58;;;15.88;;
215;SDS011;64590;48.81286795;9.14184224;2023-02-13T03:03:33;36.75;;;16.77;;
215;SDS011;64590;48.81286795;9.14184224;2023-02-13T03:06:21;31.60;;;15.93;;
215;SDS011;64590;48.81286795;9.14184224;2023-02-13T03:08:52;31.73;;;16.02;;
215;SDS011;64590;48.81286795;9.14184224;2023-02-13T03:11:40;29.83;;;14.85;;
215;SDS011;64590;48.81286795;9.14184224;2023-02-13T03:14:26;34.10;;;16.25;;
215;SDS011;64590;48.81286795;9.14184224;2023-02-13T03:16:54;35.10;;;16.83;;
215;SDS011;64590;48.81286795;9.14184224;2023-02-13T03:19:42;36.67;;;16.00;;
215;SDS011;64590;48.81286795;9.14184224;2023-02-13T03:22:38;36.85;;;15.93;;
215;SDS011;64590;48.81286795;9.14184224;2023-02-13T03:25:10;34.65;;;16.00;;
215;SDS011;64590;48.81286795;9.14184224;2023-02-13T03:27:44;36.45;;;17.10;;
215;SDS011;64590;48.81286795;9.14184224;2023-02-13T03:30:39;35.03;;;16.75;;
215;SDS011;64590;48.81286795;9.14184224;2023-02-13T03:33:22;37.65;;;16.92;;
215;SDS011;64590;48.81286795;9.14184224;2023-02-13T03:36:02;37.33;;;16.67;;
215;SDS011;64590;48.81286795;9.14184224;2023-02-13T03:38:56;39.10;;;17.27;;
215;SDS011;64590;48.81286795;9.14184224;2023-02-13T03:41:28;38.50;;;17.70;;
215;SDS011;64590;48.81286795;9.14184224;2023-02-13T03:44:00;39.38;;;17.20;;
215;SDS011;64590;48.81286795;9.14184224;2023-02-13T03:46:34;39.60;;;17.60;;
215;SDS011;64590;48.81286795;9.14184224;2023-02-13T03:49:03;37.78;;;17.45;;
215;SDS011;64590;48.81286795;9.14184224;2023-02-13T03:51:51;37.42;;;16.95;;
215;SDS011;64590;48.81286795;9.14184224;2023-02-13T03:54:24;35.78;;;16.05;;
215;SDS011;64590;48.81286795;9.14184224;2023-02-13T03:57:11;37.53;;;16.95;;
215;SDS011;64590;48.81286795;9.14184224;2023-02-13T04:00:01;38.50;;;17.60;;
215;SDS011;64590;48.81286795;9.14184224;2023-02-13T04:02:40;42.42;;;17.48;;
215;SDS011;64590;48.81286795;9.14184224;2023-02-13T04:05:15;37.97;;;16.88;;
215;SDS011;64590;48.81286795;9.14184224;2023-02-13T04:07:45;35.83;;;16.95;;
215;SDS011;64590;48.81286795;9.14184224;2023-02-13T04:10:13;40.35;;;18.25;;
215;SDS011;64590;48.81286795;9.14184224;2023-02-13T04:12:42;40.35;;;18.33;;
215;SDS011;64590;48.81286795;9.14184224;2023-02-13T04:15:17;34.20;;;16.10;;
215;SDS011;64590;48.81286795;9.14184224;2023-02-13T04:17:51;38.92;;;17.88;;
215;SDS011;64590;48.81286795;9.14184224;2023-02-13T04:20:25;41.13;;;17.65;;
215;SDS011;64590;48.81286795;9.14184224;2023-02-13T04:22:52;38.70;;;18.00;;
215;SDS011;64590;48.81286795;9.14184224;2023-02-13T04:25:20;41.20;;;17.67;;
215;SDS011;64590;48.81286795;9.14184224;2023-02-13T04:27:47;40.42;;;18.33;;
215;SDS011;64590;48.81286795;9.14184224;2023-02-13T04:30:14;37.78;;;17.45;;
215;SDS011;64590;48.81286795;9.14184224;2023-02-13T04:32:40;42.22;;;18.10;;
215;SDS011;64590;48.81286795;9.14184224;2023-02-13T04:35:07;36.10;;;17.25;;
215;SDS011;64590;48.81286795;9.14184224;2023-02-13T04:37:35;40.47;;;18.67;;
215;SDS011;64590;48.81286795;9.14184224;2023-02-13T04:40:02;41.20;;;18.58;;
215;SDS011;64590;48.81286795;9.14184224;2023-02-13T04:42:30;40.85;;;18.10;;
215;SDS011;64590;48.81286795;9.14184224;2023-02-13T04:44:57;42.50;;;18.20;;
215;SDS011;64590;48.81286795;9.14184224;2023-02-13T04:47:23;41.05;;;19.25;;
215;SDS011;64590;48.81286795;9.14184224;2023-02-13T04:49:50;42.17;;;19.13;;
215;SDS011;64590;48.81286795;9.14184224;2023-02-13T04:52:16;43.55;;;19.48;;
215;SDS011;64590;48.81286795;9.14184224;2023-02-13T04:54:43;43.10;;;19.63;;
215;SDS011;64590;48.81286795;9.14184224;2023-02-13T04:57:10;44.00;;;19.42;;
215;SDS011;64590;48.81286795;9.14184224;2023-02-13T04:59:38;44.72;;;19.80;;
215;SDS011;64590;48.81286795;9.14184224;2023-02-13T05:02:04;42.85;;;19.20;;
215;SDS011;64590;48.81286795;9.14184224;2023-02-13T05:04:31;40.10;;;18.08;;
215;SDS011;64590;48.81286795;9.14184224;2023-02-13T05:06:57;42.78;;;19.13;;
215;SDS011;64590;48.81286795;9.14184224;2023-02-13T05:09:24;38.05;;;17.90;;
215;SDS011;64590;48.81286795;9.14184224;2023-02-13T05:11:51;38.47;;;17.58;;
215;SDS011;64590;48.81286795;9.14184224;2023-02-13T05:14:18;40.40;;;18.80;;
215;SDS011;64590;48.81286795;9.14184224;2023-02-13T05:16:46;38.90;;;18.25;;
215;SDS011;64590;48.81286795;9.14184224;2023-02-13T05:19:14;42.00;;;18.13;;
215;SDS011;64590;48.81286795;9.14184224;2023-02-13T05:21:41;39.80;;;17.60;;
215;SDS011;64590;48.81286795;9.14184224;2023-02-13T05:24:25;38.55;;;17.63;;
215;SDS011;64590;48.81286795;9.14184224;2023-02-13T05:26:51;41.33;;;18.55;;
215;SDS011;64590;48.81286795;9.14184224;2023-02-13T05:29:18;39.97;;;18.83;;
215;SDS011;64590;48.81286795;9.14184224;2023-02-13T05:31:49;42.60;;;18.80;;
215;SDS011;64590;48.81286795;9.14184224;2023-02-13T05:34:16;40.70;;;18.88;;
215;SDS011;64590;48.81286795;9.14184224;2023-02-13T05:36:43;41.15;;;18.73;;
215;SDS011;64590;48.81286795;9.14184224;2023-02-13T05:39:10;41.15;;;18.10;;
215;SDS011;64590;48.81286795;9.14184224;2023-02-13T05:41:36;43.22;;;18.33;;
215;SDS011;64590;48.81286795;9.14184224;2023-02-13T05:44:03;42.28;;;18.80;;
215;SDS011;64590;48.81286795;9.14184224;2023-02-13T05:46:30;43.78;;;19.38;;
215;SDS011;64590;48.81286795;9.14184224;2023-02-13T05:48:58;49.35;;;19.75;;
215;SDS011;64590;48.81286795;9.14184224;2023-02-13T05:51:25;44.60;;;20.02;;
215;SDS011;64590;48.81286795;9.14184224;2023-02-13T05:53:51;44.05;;;19.58;;
215;SDS011;64590;48.81286795;9.14184224;2023-02-13T05:56:18;45.55;;;19.38;;
215;SDS011;64590;48.81286795;9.14184224;2023-02-13T05:58:44;45.35;;;20.20;;
215;SDS011;64590;48.81286795;9.14184224;2023-02-13T06:01:11;46.47;;;19.88;;
215;SDS011;64590;48.81286795;9.14184224;2023-02-13T06:03:38;44.30;;;19.88;;
215;SDS011;64590;48.81286795;9.14184224;2023-02-13T06:06:06;46.60;;;20.35;;
215;SDS011;64590;48.81286795;9.14184224;2023-02-13T06:08:33;47.03;;;20.05;;
215;SDS011;64590;48.81286795;9.14184224;2023-02-13T06:11:00;44.97;;;20.40;;
215;SDS011;64590;48.81286795;9.14184224;2023-02-13T06:13:26;47.58;;;19.95;;
215;SDS011;64590;48.81286795;9.14184224;2023-02-13T06:15:53;42.65;;;19.15;;
215;SDS011;64590;48.81286795;9.14184224;2023-02-13T06:18:19;51.75;;;21.42;;
215;SDS011;64590;48.81286795;9.14184224;2023-02-13T06:20:46;47.78;;;20.35;;
215;SDS011;64590;48.81286795;9.14184224;2023-02-13T06:23:14;45.65;;;19.95;;
215;SDS011;64590;48.81286795;9.14184224;2023-02-13T06:25:41;44.78;;;20.08;;
215;SDS011;64590;48.81286795;9.14184224;2023-02-13T06:28:08;47.80;;;20.40;;
215;SDS011;64590;48.81286795;9.14184224;2023-02-13T06:30:34;46.08;;;20.42;;
215;SDS011;64590;48.81286795;9.14184224;2023-02-13T06:33:01;48.97;;;20.80;;
215;SDS011;64590;48.81286795;9.14184224;2023-02-13T06:35:27;42.97;;;19.50;;
215;SDS011;64590;48.81286795;9.14184224;2023-02-13T06:37:54;46.65;;;20.00;;
215;SDS011;64590;48.81286795;9.14184224;2023-02-13T06:40:22;47.25;;;19.80;;
215;SDS011;64590;48.81286795;9.14184224;2023-02-13T06:42:48;44.70;;;19.60;;
215;SDS011;64590;48.81286795;9.14184224;2023-02-13T06:45:15;46.80;;;19.55;;
215;SDS011;64590;48.81286795;9.14184224;2023-02-13T06:47:42;43.08;;;19.52;;
215;SDS011;64590;48.81286795;9.14184224;2023-02-13T06:50:10;47.22;;;20.60;;
215;SDS011;64590;48.81286795;9.14184224;2023-02-13T06:52:37;45.13;;;20.13;;
215;SDS011;64590;48.81286795;9.14184224;2023-02-13T06:55:04;49.50;;;19.63;;
215;SDS011;64590;48.81286795;9.14184224;2023-02-13T06:57:32;42.17;;;18.92;;
215;SDS011;64590;48.81286795;9.14184224;2023-02-13T06:59:59;50.78;;;20.63;;
215;SDS011;64590;48.81286795;9.14184224;2023-02-13T07:02:30;46.22;;;19.08;;
215;SDS011;64590;48.81286795;9.14184224;2023-02-13T07:04:56;41.88;;;18.58;;
215;SDS011;64590;48.81286795;9.14184224;2023-02-13T07:07:23;48.88;;;19.70;;
215;SDS011;64590;48.81286795;9.14184224;2023-02-13T07:09:49;45.47;;;18.55;;
215;SDS011;64590;48.81286795;9.14184224;2023-02-13T07:12:16;42.20;;;19.15;;
215;SDS011;64590;48.81286795;9.14184224;2023-02-13T07:14:44;40.90;;;18.55;;
215;SDS011;64590;48.81286795;9.14184224;2023-02-13T07:17:10;44.15;;;19.20;;
215;SDS011;64590;48.81286795;9.14184224;2023-02-13T07:19:37;41.95;;;18.77;;
215;SDS011;64590;48.81286795;9.14184224;2023-02-13T07:22:03;49.42;;;20.13;;
215;SDS011;64590;48.81286795;9.14184224;2023-02-13T07:24:30;41.60;;;18.80;;
215;SDS011;64590;48.81286795;9.14184224;2023-02-13T07:26:57;47.70;;;19.73;;
215;SDS011;64590;48.81286795;9.14184224;2023-02-13T07:29:24;44.90;;;20.60;;
215;SDS011;64590;48.81286795;9.14184224;2023-02-13T07:31:52;44.78;;;20.30;;
215;SDS011;64590;48.81286795;9.14184224;2023-02-13T07:34:18;45.75;;;20.15;;
215;SDS011;64590;48.81286795;9.14184224;2023-02-13T07:36:45;44.05;;;19.60;;
215;SDS011;64590;48.81286795;9.14184224;2023-02-13T07:39:11;47.67;;;20.60;;
215;SDS011;64590;48.81286795;9.14184224;2023-02-13T07:41:38;54.05;;;23.45;;
215;SDS011;64590;48.81286795;9.14184224;2023-02-13T07:44:05;46.30;;;21.10;;
215;SDS011;64590;48.81286795;9.14184224;2023-02-13T07:46:32;49.78;;;22.20;;
215;SDS011;64590;48.81286795;9.14184224;2023-02-13T07:49:00;52.78;;;22.33;;
215;SDS011;64590;48.81286795;9.14184224;2023-02-13T07:51:27;49.25;;;21.80;;
215;SDS011;64590;48.81286795;9.14184224;2023-02-13T07:53:53;50.55;;;22.80;;
215;SDS011;64590;48.81286795;9.14184224;2023-02-13T07:56:20;52.22;;;21.50;;
215;SDS011;64590;48.81286795;9.14184224;2023-02-13T07:58:47;49.50;;;21.55;;
215;SDS011;64590;48.81286795;9.14184224;2023-02-13T08:01:14;49.55;;;22.02;;
215;SDS011;64590;48.81286795;9.14184224;2023-02-13T08:03:42;58.13;;;23.60;;
215;SDS011;64590;48.81286795;9.14184224;2023-02-13T08:06:09;55.30;;;24.05;;
215;SDS011;64590;48.81286795;9.14184224;2023-02-13T08:08:37;61.47;;;24.73;;
215;SDS011;64590;48.81286795;9.14184224;2023-02-13T08:11:04;60.95;;;25.15;;
215;SDS011;64590;48.81286795;9.14184224;2023-02-13T08:13:50;57.17;;;26.38;;
215;SDS011;64590;48.81286795;9.14184224;2023-02-13T08:16:17;64.82;;;26.27;;
215;SDS011;64590;48.81286795;9.14184224;2023-02-13T08:18:44;61.92;;;26.40;;
215;SDS011;64590;48.81286795;9.14184224;2023-02-13T08:21:12;60.20;;;26.40;;
215;SDS011;64590;48.81286795;9.14184224;2023-02-13T08:23:39;65.30;;;28.13;;
215;SDS011;64590;48.81286795;9.14184224;2023-02-13T08:26:05;63.67;;;27.40;;
215;SDS011;64590;48.81286795;9.14184224;2023-02-13T08:28:32;64.75;;;27.17;;
215;SDS011;64590;48.81286795;9.14184224;2023-02-13T08:30:59;62.97;;;26.65;;
215;SDS011;64590;48.81286795;9.14184224;2023-02-13T08:33:25;60.95;;;26.30;;
215;SDS011;64590;48.81286795;9.14184224;2023-02-13T08:35:52;55.33;;;25.50;;
215;SDS011;64590;48.81286795;9.14184224;2023-02-13T08:38:19;63.65;;;25.50;;
215;SDS011;64590;48.81286795;9.14184224;2023-02-13T08:40:46;60.83;;;25.52;;
215;SDS011;64590;48.81286795;9.14184224;2023-02-13T08:43:13;59.33;;;25.25;;
215;SDS011;64590;48.81286795;9.14184224;2023-02-13T08:45:39;58.58;;;25.42;;
215;SDS011;64590;48.81286795;9.14184224;2023-02-13T08:48:06;61.47;;;26.67;;
215;SDS011;64590;48.81286795;9.14184224;2023-02-13T08:50:32;55.50;;;24.90;;
215;SDS011;64590;48.81286795;9.14184224;2023-02-13T08:52:59;47.83;;;22.67;;
215;SDS011;64590;48.81286795;9.14184224;2023-02-13T08:55:27;46.85;;;21.15;;
215;SDS011;64590;48.81286795;9.14184224;2023-02-13T08:57:57;39.10;;;19.02;;
215;SDS011;64590;48.81286795;9.14184224;2023-02-13T09:00:25;39.38;;;19.05;;
215;SDS011;64590;48.81286795;9.14184224;2023-02-13T09:02:51;40.28;;;19.13;;
215;SDS011;64590;48.81286795;9.14184224;2023-02-13T09:05:18;36.85;;;18.15;;
215;SDS011;64590;48.81286795;9.14184224;2023-02-13T09:07:44;39.78;;;19.38;;
215;SDS011;64590;48.81286795;9.14184224;2023-02-13T09:10:11;39.75;;;19.58;;
215;SDS011;64590;48.81286795;9.14184224;2023-02-13T09:12:39;40.03;;;20.08;;
215;SDS011;64590;48.81286795;9.14184224;2023-02-13T09:15:05;40.63;;;20.13;;
215;SDS011;64590;48.81286795;9.14184224;2023-02-13T09:17:32;39.35;;;19.73;;
215;SDS011;64590;48.81286795;9.14184224;2023-02-13T09:19:59;36.42;;;18.85;;
215;SDS011;64590;48.81286795;9.14184224;2023-02-13T09:22:25;39.80;;;18.80;;
215;SDS011;64590;48.81286795;9.14184224;2023-02-13T09:24:52;37.30;;;18.13;;
215;SDS011;64590;48.81286795;9.14184224;2023-02-13T09:27:19;36.95;;;18.50;;
215;SDS011;64590;48.81286795;9.14184224;2023-02-13T09:29:46;37.00;;;17.55;;
215;SDS011;64590;48.81286795;9.14184224;2023-02-13T09:32:13;36.80;;;17.45;;
215;SDS011;64590;48.81286795;9.14184224;2023-02-13T09:34:40;34.67;;;17.65;;
215;SDS011;64590;48.81286795;9.14184224;2023-02-13T09:37:06;32.13;;;16.75;;
215;SDS011;64590;48.81286795;9.14184224;2023-02-13T09:39:33;31.88;;;17.02;;
215;SDS011;64590;48.81286795;9.14184224;2023-02-13T09:41:59;30.00;;;15.98;;
215;SDS011;64590;48.81286795;9.14184224;2023-02-13T09:44:28;33.95;;;17.08;;
215;SDS011;64590;48.81286795;9.14184224;2023-02-13T09:47:03;30.70;;;16.40;;
215;SDS011;64590;48.81286795;9.14184224;2023-02-13T09:49:34;35.47;;;17.50;;
215;SDS011;64590;48.81286795;9.14184224;2023-02-13T09:52:03;35.13;;;17.15;;
215;SDS011;64590;48.81286795;9.14184224;2023-02-13T09:54:30;32.20;;;16.80;;
215;SDS011;64590;48.81286795;9.14184224;2023-02-13T09:56:57;35.42;;;17.70;;
215;SDS011;64590;48.81286795;9.14184224;2023-02-13T09:59:36;32.83;;;16.90;;
215;SDS011;64590;48.81286795;9.14184224;2023-02-13T10:02:19;32.45;;;17.08;;
215;SDS011;64590;48.81286795;9.14184224;2023-02-13T10:04:59;34.22;;;16.90;;
215;SDS011;64590;48.81286795;9.14184224;2023-02-13T10:07:36;31.83;;;16.40;;
215;SDS011;64590;48.81286795;9.14184224;2023-02-13T10:10:11;37.90;;;17.65;;
215;SDS011;64590;48.81286795;9.14184224;2023-02-13T10:12:47;31.63;;;16.98;;
215;SDS011;64590;48.81286795;9.14184224;2023-02-13T10:15:22;34.08;;;17.30;;
215;SDS011;64590;48.81286795;9.14184224;2023-02-13T10:17:58;33.85;;;16.75;;
215;SDS011;64590;48.81286795;9.14184224;2023-02-13T10:20:30;34.65;;;17.13;;
215;SDS011;64590;48.81286795;9.14184224;2023-02-13T10:23:03;35.15;;;16.30;;
215;SDS011;64590;48.81286795;9.14184224;2023-02-13T10:25:39;30.30;;;16.45;;
215;SDS011;64590;48.81286795;9.14184224;2023-02-13T10:28:12;36.80;;;18.77;;
215;SDS011;64590;48.81286795;9.14184224;2023-02-13T10:30:45;36.88;;;19.20;;
215;SDS011;64590;48.81286795;9.14184224;2023-02-13T10:33:17;33.27;;;17.27;;
215;SDS011;64590;48.81286795;9.14184224;2023-02-13T10:35:49;32.85;;;18.08;;
215;SDS011;64590;48.81286795;9.14184224;2023-02-13T10:38:21;35.22;;;18.50;;
215;SDS011;64590;48.81286795;9.14184224;2023-02-13T10:41:02;35.90;;;18.35;;
215;SDS011;64590;48.81286795;9.14184224;2023-02-13T10:43:34;31.77;;;17.63;;
215;SDS011;64590;48.81286795;9.14184224;2023-02-13T10:46:08;31.90;;;17.15;;
215;SDS011;64590;48.81286795;9.14184224;2023-02-13T10:48:48;34.15;;;17.58;;
215;SDS011;64590;48.81286795;9.14184224;2023-02-13T10:51:26;33.63;;;17.60;;
215;SDS011;64590;48.81286795;9.14184224;2023-02-13T10:54:08;36.35;;;17.42;;
215;SDS011;64590;48.81286795;9.14184224;2023-02-13T10:56:47;32.47;;;16.98;;
215;SDS011;64590;48.81286795;9.14184224;2023-02-13T10:59:30;33.72;;;16.77;;
215;SDS011;64590;48.81286795;9.14184224;2023-02-13T11:02:12;33.47;;;16.35;;
215;SDS011;64590;48.81286795;9.14184224;2023-02-13T11:04:49;36.58;;;17.95;;
215;SDS011;64590;48.81286795;9.14184224;2023-02-13T11:07:18;31.07;;;17.27;;
215;SDS011;64590;48.81286795;9.14184224;2023-02-13T11:09:48;29.20;;;17.17;;
215;SDS011;64590;48.81286795;9.14184224;2023-02-13T11:12:25;29.23;;;16.50;;
215;SDS011;64590;48.81286795;9.14184224;2023-02-13T11:14:54;28.47;;;16.03;;
215;SDS011;64590;48.81286795;9.14184224;2023-02-13T11:17:23;31.27;;;15.68;;
215;SDS011;64590;48.81286795;9.14184224;2023-02-13T11:19:54;29.45;;;16.05;;
215;SDS011;64590;48.81286795;9.14184224;2023-02-13T11:22:27;31.97;;;16.47;;
215;SDS011;64590;48.81286795;9.14184224;2023-02-13T11:24:57;31.43;;;16.20;;
215;SDS011;64590;48.81286795;9.14184224;2023-02-13T11:27:26;30.30;;;16.90;;
215;SDS011;64590;48.81286795;9.14184224;2023-02-13T11:29:56;32.90;;;16.00;;
215;SDS011;64590;48.81286795;9.14184224;2023-02-13T11:32:24;26.63;;;15.43;;
215;SDS011;64590;48.81286795;9.14184224;2023-02-13T11:34:51;26.60;;;14.87;;
215;SDS011;64590;48.81286795;9.14184224;2023-02-13T11:37:21;31.47;;;15.03;;
215;SDS011;64590;48.81286795;9.14184224;2023-02-13T11:39:50;25.63;;;15.00;;
215;SDS011;64590;48.81286795;9.14184224;2023-02-13T11:42:19;26.53;;;14.80;;
215;SDS011;64590;48.81286795;9.14184224;2023-02-13T11:44:51;29.40;;;14.73;;
215;SDS011;64590;48.81286795;9.14184224;2023-02-13T11:47:30;23.30;;;13.93;;
215;SDS011;64590;48.81286795;9.14184224;2023-02-13T11:50:00;26.00;;;14.00;;
215;SDS011;64590;48.81286795;9.14184224;2023-02-13T11:52:29;24.47;;;13.50;;
215;SDS011;64590;48.81286795;9.14184224;2023-02-13T11:54:58;30.63;;;14.50;;
215;SDS011;64590;48.81286795;9.14184224;2023-02-13T11:57:28;26.97;;;14.17;;
215;SDS011;64590;48.81286795;9.14184224;2023-02-13T11:59:57;24.43;;;13.30;;
215;SDS011;64590;48.81286795;9.14184224;2023-02-13T12:02:25;25.33;;;13.73;;
215;SDS011;64590;48.81286795;9.14184224;2023-02-13T12:04:54;24.80;;;14.00;;
215;SDS011;64590;48.81286795;9.14184224;2023-02-13T12:07:40;22.80;;;13.40;;
215;SDS011;64590;48.81286795;9.14184224;2023-02-13T12:12:46;23.17;;;12.10;;
215;SDS011;64590;48.81286795;9.14184224;2023-02-13T12:15:19;21.03;;;12.90;;
215;SDS011;64590;48.81286795;9.14184224;2023-02-13T12:17:48;22.37;;;12.70;;
215;SDS011;64590;48.81286795;9.14184224;2023-02-13T12:20:22;22.67;;;12.50;;
215;SDS011;64590;48.81286795;9.14184224;2023-02-13T12:22:57;20.80;;;12.63;;
215;SDS011;64590;48.81286795;9.14184224;2023-02-13T12:25:41;26.80;;;12.60;;
215;SDS011;64590;48.81286795;9.14184224;2023-02-13T12:28:19;24.73;;;12.40;;
215;SDS011;64590;48.81286795;9.14184224;2023-02-13T12:34:07;23.20;;;13.10;;
215;SDS011;64590;48.81286795;9.14184224;2023-02-13T12:36:52;19.47;;;11.50;;
215;SDS011;64590;48.81286795;9.14184224;2023-02-13T12:39:37;21.47;;;12.80;;
215;SDS011;64590;48.81286795;9.14184224;2023-02-13T12:42:13;22.20;;;13.33;;
215;SDS011;64590;48.81286795;9.14184224;2023-02-13T12:44:49;21.10;;;12.40;;
215;SDS011;64590;48.81286795;9.14184224;2023-02-13T12:47:37;22.87;;;12.13;;
215;SDS011;64590;48.81286795;9.14184224;2023-02-13T12:50:19;21.90;;;12.63;;
215;SDS011;64590;48.81286795;9.14184224;2023-02-13T12:52:57;20.03;;;11.80;;
215;SDS011;64590;48.81286795;9.14184224;2023-02-13T12:55:39;21.93;;;13.10;;
215;SDS011;64590;48.81286795;9.14184224;2023-02-13T12:58:30;22.30;;;13.63;;
215;SDS011;64590;48.81286795;9.14184224;2023-02-13T13:01:09;22.63;;;13.13;;
215;SDS011;64590;48.81286795;9.14184224;2023-02-13T13:03:46;23.20;;;13.90;;
215;SDS011;64590;48.81286795;9.14184224;2023-02-13T13:06:28;24.47;;;14.30;;
215;SDS011;64590;48.81286795;9.14184224;2023-02-13T13:09:20;22.53;;;13.57;;
215;SDS011;64590;48.81286795;9.14184224;2023-02-13T13:12:21;23.87;;;14.47;;
215;SDS011;64590;48.81286795;9.14184224;2023-02-13T13:15:10;28.90;;;14.77;;
215;SDS011;64590;48.81286795;9.14184224;2023-02-13T13:17:45;24.30;;;13.93;;
215;SDS011;64590;48.81286795;9.14184224;2023-02-13T13:20:34;23.80;;;14.00;;